< < Back
Terminal Aerodrome Forecast


Current Version              Previous Versions:   1  2  3  4  5  6  7  8  9  

Terminal Aerodrome Forecast

070
FTUS42 KCHS 271728
TAFSAV
TAF
KSAV 271728Z 2718/2818 11007KT P6SM SCT025 BKN050
      TEMPO 2718/2721 VRB10G20KT 4SM -TSRA BKN030CB
     FM280200 VRB03KT P6SM SCT050 SCT080=



Latest METAR

660
SAUS80 KWBC 280800 RRA
MTRSAV
METAR KSAV 280753Z AUTO 02006KT 10SM CLR 23/22 A3002 RMK AO2 SLP165
T02330217 TSNO PNO $


USA.gov is the U.S. government's official web portal to all federal, state and local government web resources and services.